Time;durP1;ratioP1;P1;durP2;ratioP2;P2;SDS_P1;SDS_P2;PMS_P1;PMS_P2;Temp;Humidity;BMP_temperature;BMP_pressure;BME280_temperature;BME280_humidity;BME280_pressure;Samples;Min_cycle;Max_cycle;Signal;HPM_P1;HPM_P2
2023/09/22 00:00:54;;;;;;;34.58;14.70;;;14.20;99.90;;;;;;6187753;23;20023;-83
2023/09/22 00:03:20;;;;;;;32.03;14.05;;;14.70;99.90;;;;;;6187028;23;20346;-83
2023/09/22 00:05:46;;;;;;;33.40;13.85;;;14.20;99.90;;;;;;6187287;23;20012;-83
2023/09/22 00:08:12;;;;;;;28.70;13.52;;;14.20;99.90;;;;;;6186980;23;20040;-83
2023/09/22 00:10:38;;;;;;;29.45;13.20;;;14.90;99.90;;;;;;6186996;23;20341;-83
2023/09/22 00:13:04;;;;;;;31.95;13.05;;;14.20;99.90;;;;;;6188014;23;20016;-83
2023/09/22 00:15:30;;;;;;;28.58;13.63;;;14.70;99.90;;;;;;6186539;23;20457;-83
2023/09/22 00:17:56;;;;;;;27.02;12.88;;;14.20;99.90;;;;;;6187856;23;20019;-83
2023/09/22 00:20:22;;;;;;;30.63;12.90;;;14.30;99.90;;;;;;6187810;23;20457;-83
2023/09/22 00:22:48;;;;;;;26.40;13.35;;;14.30;99.90;;;;;;6188648;23;20012;-83
2023/09/22 00:25:15;;;;;;;28.20;12.98;;;14.30;99.90;;;;;;6189669;23;20112;-83
2023/09/22 00:27:41;;;;;;;25.23;11.70;;;14.30;99.90;;;;;;6189792;23;20016;-83
2023/09/22 00:30:09;;;;;;;21.80;11.63;;;14.30;99.90;;;;;;6189235;23;20341;-83
2023/09/22 00:32:35;;;;;;;20.30;11.27;;;14.30;99.90;;;;;;6189776;23;20016;-83
2023/09/22 00:35:03;;;;;;;20.02;10.60;;;14.30;99.90;;;;;;6189998;23;20095;-83
2023/09/22 00:37:29;;;;;;;20.63;10.50;;;14.20;99.90;;;;;;6188463;23;20009;-83
2023/09/22 00:39:54;;;;;;;20.15;11.00;;;15.00;99.90;;;;;;6189553;23;20018;-83
2023/09/22 00:42:20;;;;;;;17.73;9.93;;;14.20;99.90;;;;;;6216995;23;20021;-83
2023/09/22 00:44:46;;;;;;;20.38;10.18;;;14.20;99.90;;;;;;6188759;23;20030;-83
2023/09/22 00:47:15;;;;;;;16.83;9.65;;;14.20;99.90;;;;;;6189687;23;20017;-83
2023/09/22 00:49:47;;;;;;;17.00;9.57;;;14.70;99.90;;;;;;6214664;23;20112;-84
2023/09/22 00:52:13;;;;;;;16.92;9.25;;;14.90;99.90;;;;;;6189171;23;20389;-83
2023/09/22 00:54:40;;;;;;;18.38;9.18;;;14.10;99.90;;;;;;6189623;23;20495;-83
2023/09/22 00:57:06;;;;;;;17.92;9.52;;;14.10;99.90;;;;;;6189811;23;20012;-83
2023/09/22 00:59:33;;;;;;;17.60;9.98;;;15.10;99.90;;;;;;6188949;23;20480;-83
2023/09/22 01:02:00;;;;;;;17.40;9.20;;;14.70;99.90;;;;;;6190225;23;20020;-83
2023/09/22 01:04:26;;;;;;;18.00;9.07;;;14.50;99.90;;;;;;6188648;23;20501;-83
2023/09/22 01:06:52;;;;;;;18.50;9.40;;;14.30;99.90;;;;;;6189209;23;20381;-83
2023/09/22 01:09:17;;;;;;;16.58;9.25;;;14.10;99.90;;;;;;6216334;23;20021;-83
2023/09/22 01:11:44;;;;;;;19.25;10.00;;;14.10;99.90;;;;;;6188504;23;20024;-84
2023/09/22 01:14:09;;;;;;;19.73;10.07;;;14.10;99.90;;;;;;6189691;23;20017;-83
2023/09/22 01:16:35;;;;;;;18.15;9.70;;;14.10;99.90;;;;;;6216061;23;20024;-83
2023/09/22 01:19:01;;;;;;;20.88;10.35;;;14.60;99.90;;;;;;6188593;23;20337;-83
2023/09/22 01:21:31;;;;;;;18.42;9.75;;;14.30;99.90;;;;;;6189666;23;20021;-83
2023/09/22 01:24:00;;;;;;;21.67;10.40;;;14.10;99.90;;;;;;6188456;23;20009;-83
2023/09/22 01:26:27;;;;;;;19.98;10.52;;;15.10;99.90;;;;;;6188495;23;20036;-83
2023/09/22 01:28:53;;;;;;;20.48;10.13;;;14.00;99.90;;;;;;6189038;23;20012;-83
2023/09/22 01:31:18;;;;;;;21.35;11.20;;;14.10;99.90;;;;;;6189572;23;20071;-83
2023/09/22 01:33:45;;;;;;;23.65;11.35;;;14.10;99.90;;;;;;6187900;23;20086;-83
2023/09/22 01:36:12;;;;;;;19.73;10.18;;;15.20;99.90;;;;;;6189473;23;20020;-83
2023/09/22 01:38:38;;;;;;;22.70;11.30;;;14.10;99.90;;;;;;6195908;23;19997;-82
2023/09/22 01:41:03;;;;;;;19.60;11.13;;;14.90;99.90;;;;;;6214666;23;20029;-82
2023/09/22 01:43:29;;;;;;;20.35;11.00;;;14.00;99.90;;;;;;6196076;23;20045;-83
2023/09/22 01:45:55;;;;;;;23.00;11.68;;;14.90;99.90;;;;;;6189215;23;20515;-83
2023/09/22 01:48:20;;;;;;;21.25;11.40;;;14.10;99.90;;;;;;6188561;23;20020;-83
2023/09/22 01:50:46;;;;;;;20.85;11.93;;;14.00;99.90;;;;;;6188609;23;20349;-84
2023/09/22 01:53:11;;;;;;;25.30;12.60;;;14.10;99.90;;;;;;6184031;23;20028;-84
2023/09/22 01:55:38;;;;;;;27.17;12.45;;;14.00;99.90;;;;;;6183213;23;20403;-83
2023/09/22 01:58:04;;;;;;;23.15;12.07;;;14.10;99.90;;;;;;6184319;23;20009;-84
2023/09/22 02:00:31;;;;;;;26.25;12.70;;;14.00;99.90;;;;;;6184475;23;20047;-83
2023/09/22 02:02:57;;;;;;;27.23;13.48;;;14.00;99.90;;;;;;6182481;23;20603;-83
2023/09/22 02:05:23;;;;;;;22.80;12.40;;;14.70;99.90;;;;;;6182378;23;20446;-83
2023/09/22 02:07:48;;;;;;;23.55;13.13;;;14.90;99.90;;;;;;6182839;23;20028;-83
2023/09/22 02:10:15;;;;;;;27.30;13.07;;;14.00;99.90;;;;;;6183590;23;20013;-83
2023/09/22 02:12:42;;;;;;;25.98;13.43;;;14.00;99.90;;;;;;6184004;23;20046;-83
2023/09/22 02:15:12;;;;;;;27.67;13.80;;;14.90;99.90;;;;;;6183362;23;20015;-84
2023/09/22 02:17:44;;;;;;;30.42;13.85;;;14.00;99.90;;;;;;6183563;23;20009;-83
2023/09/22 02:20:17;;;;;;;25.85;13.73;;;14.00;99.90;;;;;;6183957;23;20028;-84
2023/09/22 02:22:47;;;;;;;23.85;12.73;;;14.00;99.90;;;;;;6182911;23;20025;-83
2023/09/22 02:25:19;;;;;;;26.15;14.50;;;14.00;99.90;;;;;;6184083;23;20091;-84
2023/09/22 02:27:50;;;;;;;30.08;14.05;;;14.00;99.90;;;;;;6183759;23;20564;-83
2023/09/22 02:30:19;;;;;;;32.10;14.57;;;13.90;99.90;;;;;;6183242;23;20013;-83
2023/09/22 02:32:48;;;;;;;26.85;14.35;;;14.00;99.90;;;;;;6183433;23;20051;-83
2023/09/22 02:35:14;;;;;;;29.30;14.80;;;13.90;99.90;;;;;;6183754;23;20013;-83
2023/09/22 02:37:40;;;;;;;27.70;14.82;;;14.00;99.90;;;;;;6182324;23;20044;-84
2023/09/22 02:40:07;;;;;;;27.05;14.50;;;14.00;99.90;;;;;;6183863;23;20083;-84
2023/09/22 02:42:33;;;;;;;27.67;14.55;;;14.00;99.90;;;;;;6183160;23;20017;-83
2023/09/22 02:44:59;;;;;;;29.73;15.18;;;13.90;99.90;;;;;;6182785;23;20024;-83
2023/09/22 02:47:28;;;;;;;24.75;13.77;;;14.10;99.90;;;;;;6183667;23;20441;-84
2023/09/22 02:49:57;;;;;;;29.05;15.57;;;14.10;99.90;;;;;;6182605;23;20049;-83
2023/09/22 02:52:23;;;;;;;28.20;15.05;;;14.40;99.90;;;;;;6183002;23;20095;-83
2023/09/22 02:54:53;;;;;;;26.05;14.13;;;13.90;99.90;;;;;;6183370;23;20013;-83
2023/09/22 02:57:20;;;;;;;29.00;14.82;;;13.90;99.90;;;;;;6182481;23;20021;-83
2023/09/22 02:59:46;;;;;;;25.75;13.80;;;13.90;99.90;;;;;;6183539;23;20020;-83
2023/09/22 03:02:13;;;;;;;28.35;14.65;;;14.50;99.90;;;;;;6183486;23;20017;-84
2023/09/22 03:04:40;;;;;;;27.58;14.65;;;13.80;99.90;;;;;;6182353;23;20024;-83
2023/09/22 03:07:05;;;;;;;25.77;13.77;;;13.70;99.90;;;;;;6183673;23;20561;-83
2023/09/22 03:09:31;;;;;;;23.73;13.23;;;14.70;99.90;;;;;;6183383;23;20017;-83
2023/09/22 03:11:57;;;;;;;25.58;14.30;;;14.80;99.90;;;;;;6181845;23;20068;-83
2023/09/22 03:14:22;;;;;;;27.73;14.73;;;13.80;99.90;;;;;;6183702;23;20068;-83
2023/09/22 03:16:49;;;;;;;27.25;14.15;;;13.70;99.90;;;;;;6183149;23;20083;-83
2023/09/22 03:19:14;;;;;;;28.48;14.20;;;14.60;99.90;;;;;;6182462;23;20160;-83
2023/09/22 03:21:40;;;;;;;26.70;14.30;;;14.50;99.90;;;;;;6183264;23;20501;-84
2023/09/22 03:24:06;;;;;;;25.88;14.32;;;14.00;99.90;;;;;;6183743;23;20449;-83
2023/09/22 03:26:32;;;;;;;26.85;14.30;;;13.70;99.90;;;;;;6182607;23;20017;-83
2023/09/22 03:28:57;;;;;;;27.75;14.48;;;13.70;99.90;;;;;;6183212;23;20013;-83
2023/09/22 03:31:23;;;;;;;26.17;14.35;;;13.70;99.90;;;;;;6183116;23;20080;-83
2023/09/22 03:33:49;;;;;;;31.77;15.27;;;13.70;99.90;;;;;;6181975;23;20013;-83
2023/09/22 03:36:15;;;;;;;30.55;14.57;;;13.70;99.90;;;;;;6183492;23;20334;-83
2023/09/22 03:38:43;;;;;;;26.00;14.60;;;13.70;99.90;;;;;;6183246;23;20061;-83
2023/09/22 03:41:08;;;;;;;26.90;13.98;;;14.30;99.90;;;;;;6182337;23;20017;-83
2023/09/22 03:43:34;;;;;;;24.63;13.68;;;13.60;99.90;;;;;;6183238;23;20020;-83
2023/09/22 03:46:00;;;;;;;22.58;12.80;;;13.60;99.90;;;;;;6183565;23;20100;-83
2023/09/22 03:48:26;;;;;;;22.98;12.40;;;13.60;99.90;;;;;;6157762;23;20075;-83
2023/09/22 03:50:53;;;;;;;25.10;12.43;;;13.60;99.90;;;;;;6182477;23;20017;-83
2023/09/22 03:53:19;;;;;;;23.80;12.38;;;13.50;99.90;;;;;;6182336;23;20021;-83
2023/09/22 03:55:44;;;;;;;24.25;12.27;;;13.60;99.90;;;;;;6183629;23;20024;-83
2023/09/22 03:58:10;;;;;;;27.65;12.07;;;14.70;99.90;;;;;;6185117;23;20374;-83
2023/09/22 04:00:36;;;;;;;20.17;11.20;;;13.50;99.90;;;;;;6183720;23;20108;-83
2023/09/22 04:03:04;;;;;;;22.50;12.18;;;14.30;99.90;;;;;;6184700;23;20032;-83
2023/09/22 04:05:29;;;;;;;24.38;12.10;;;13.50;99.90;;;;;;6183693;23;20025;-83
2023/09/22 04:07:57;;;;;;;25.83;12.55;;;14.40;99.90;;;;;;6183735;23;20115;-83
2023/09/22 04:10:23;;;;;;;24.33;11.68;;;13.50;99.90;;;;;;6185255;23;20063;-84
2023/09/22 04:12:50;;;;;;;23.73;12.15;;;13.40;99.90;;;;;;6183026;23;20059;-83
2023/09/22 04:15:16;;;;;;;25.25;12.93;;;13.40;99.90;;;;;;6184156;23;20017;-83
2023/09/22 04:17:42;;;;;;;25.60;13.48;;;13.60;99.90;;;;;;6184838;23;20020;-84
2023/09/22 04:20:11;;;;;;;28.33;13.73;;;13.40;99.90;;;;;;6187629;23;20017;-83
2023/09/22 04:22:37;;;;;;;27.55;14.30;;;13.40;99.90;;;;;;6197325;23;20017;-84
2023/09/22 04:25:11;;;;;;;28.75;14.27;;;13.30;99.90;;;;;;6190097;23;20021;-83
2023/09/22 04:27:46;;;;;;;29.60;15.52;;;13.30;99.90;;;;;;6187612;23;20017;-83
2023/09/22 04:30:15;;;;;;;28.27;15.02;;;13.20;99.90;;;;;;6184064;23;20017;-83
2023/09/22 04:32:42;;;;;;;31.85;16.33;;;13.20;99.90;;;;;;6184528;23;20017;-84
2023/09/22 04:35:09;;;;;;;29.60;16.98;;;13.20;99.90;;;;;;6185054;23;20014;-84
2023/09/22 04:37:35;;;;;;;31.80;15.73;;;13.20;99.90;;;;;;6183501;23;20052;-84
2023/09/22 04:40:01;;;;;;;31.42;16.75;;;13.20;99.90;;;;;;6185058;23;20024;-84
2023/09/22 04:42:27;;;;;;;32.78;17.58;;;13.10;99.90;;;;;;6183189;23;20021;-84
2023/09/22 04:44:52;;;;;;;32.47;17.38;;;13.60;99.90;;;;;;6184027;23;20017;-83
2023/09/22 04:47:18;;;;;;;32.45;16.90;;;13.00;99.90;;;;;;6184534;23;20437;-84
2023/09/22 04:49:44;;;;;;;36.35;17.52;;;13.20;99.90;;;;;;6183490;23;20017;-83
2023/09/22 04:52:10;;;;;;;33.45;17.38;;;12.90;99.90;;;;;;6185138;23;20040;-83
2023/09/22 04:54:36;;;;;;;32.65;16.33;;;12.90;99.90;;;;;;6184052;23;20039;-84
2023/09/22 04:57:02;;;;;;;39.03;19.08;;;13.90;99.90;;;;;;6183786;23;20458;-83
2023/09/22 04:59:28;;;;;;;32.95;17.23;;;12.80;99.90;;;;;;6186434;23;20009;-83
2023/09/22 05:01:56;;;;;;;41.92;20.55;;;12.70;99.90;;;;;;6184785;23;20021;-83
2023/09/22 05:04:23;;;;;;;41.90;19.95;;;13.60;99.90;;;;;;6187591;23;20037;-83
2023/09/22 05:06:49;;;;;;;37.85;18.48;;;13.50;99.90;;;;;;6185054;23;20021;-83
2023/09/22 05:09:15;;;;;;;39.28;18.08;;;12.50;99.90;;;;;;6184513;23;20323;-83
2023/09/22 05:11:41;;;;;;;39.67;19.42;;;12.60;99.90;;;;;;6183606;23;20028;-83
2023/09/22 05:14:06;;;;;;;37.83;18.70;;;13.00;99.90;;;;;;6184709;23;20092;-83
2023/09/22 05:16:32;;;;;;;42.38;19.48;;;12.60;99.90;;;;;;6184682;23;20393;-83
2023/09/22 05:18:59;;;;;;;38.95;18.77;;;13.60;99.90;;;;;;6182587;23;20041;-83
2023/09/22 05:21:25;;;;;;;47.38;19.80;;;13.10;99.90;;;;;;6184492;23;20063;-84
2023/09/22 05:23:51;;;;;;;46.67;18.23;;;12.40;99.90;;;;;;6183569;23;20051;-84
2023/09/22 05:26:17;;;;;;;51.25;19.02;;;12.50;99.90;;;;;;6183730;23;20013;-84
2023/09/22 05:28:43;;;;;;;46.00;19.10;;;12.60;99.90;;;;;;6183875;23;20024;-83
2023/09/22 05:31:09;;;;;;;45.00;18.48;;;12.30;99.90;;;;;;6184527;23;20013;-83
2023/09/22 05:33:35;;;;;;;42.50;17.75;;;12.40;99.90;;;;;;6183090;23;20044;-83
2023/09/22 05:36:02;;;;;;;40.42;17.10;;;13.20;99.90;;;;;;6184175;23;20027;-83
2023/09/22 05:38:27;;;;;;;41.95;18.52;;;12.30;99.90;;;;;;6184397;23;20100;-83
2023/09/22 05:40:53;;;;;;;40.92;18.02;;;12.30;99.90;;;;;;6182541;23;20053;-83
2023/09/22 05:43:22;;;;;;;40.60;16.67;;;12.80;99.90;;;;;;6184435;23;20117;-83
2023/09/22 05:45:56;;;;;;;40.33;17.05;;;12.40;99.90;;;;;;6182461;23;20594;-83
2023/09/22 05:48:22;;;;;;;;;;;12.20;99.90;;;;;;6185224;23;20016;-83
2023/09/22 05:50:56;;;;;;;36.00;16.35;;;12.20;99.90;;;;;;6184302;23;20039;-84
2023/09/22 05:53:21;;;;;;;35.13;15.23;;;12.30;99.90;;;;;;6183755;23;20052;-84
2023/09/22 05:55:47;;;;;;;33.35;14.68;;;13.20;99.90;;;;;;6183858;23;20080;-84
2023/09/22 05:58:13;;;;;;;32.17;13.93;;;12.90;99.90;;;;;;6184362;23;20056;-84
2023/09/22 06:00:39;;;;;;;31.42;13.77;;;12.30;99.90;;;;;;6184060;23;20009;-84
2023/09/22 06:03:05;;;;;;;29.67;12.93;;;12.20;99.90;;;;;;6183503;23;20396;-83
2023/09/22 06:05:31;;;;;;;30.35;13.23;;;12.30;99.90;;;;;;6183868;23;20013;-83
2023/09/22 06:08:00;;;;;;;29.25;12.38;;;12.60;99.90;;;;;;6183086;23;20075;-87
2023/09/22 06:10:25;;;;;;;28.08;11.93;;;12.30;99.90;;;;;;6184232;23;20017;-82
2023/09/22 06:12:51;;;;;;;24.70;12.23;;;12.30;99.90;;;;;;6183485;23;20024;-81
2023/09/22 06:15:17;;;;;;;24.65;11.40;;;13.30;99.90;;;;;;6183283;23;20379;-82
2023/09/22 06:17:42;;;;;;;27.38;10.82;;;12.40;99.90;;;;;;6183303;23;20024;-82
2023/09/22 06:20:09;;;;;;;26.40;10.75;;;12.40;99.90;;;;;;6183119;23;20040;-82
2023/09/22 06:22:35;;;;;;;24.65;9.65;;;12.40;99.90;;;;;;6182641;23;20021;-81
2023/09/22 06:25:01;;;;;;;23.63;10.23;;;12.50;99.90;;;;;;6183571;23;20017;-80
2023/09/22 06:27:27;;;;;;;22.48;9.77;;;12.50;99.90;;;;;;6185590;23;20020;-80
2023/09/22 06:29:53;;;;;;;23.75;10.68;;;12.50;99.90;;;;;;6182615;23;20013;-81
2023/09/22 06:32:19;;;;;;;25.10;10.05;;;12.40;99.90;;;;;;6183916;23;20021;-81
2023/09/22 06:34:45;;;;;;;24.02;10.05;;;12.40;99.90;;;;;;6182975;23;20071;-81
2023/09/22 06:37:10;;;;;;;24.42;10.00;;;12.70;99.90;;;;;;6183019;23;20021;-81
2023/09/22 06:39:36;;;;;;;23.80;9.63;;;12.50;99.90;;;;;;6183575;23;20112;-82
2023/09/22 06:42:02;;;;;;;23.08;9.85;;;12.50;99.90;;;;;;6182960;23;20048;-82
2023/09/22 06:44:28;;;;;;;20.58;8.88;;;12.50;99.90;;;;;;6183163;23;20102;-80
2023/09/22 06:46:54;;;;;;;21.90;9.00;;;12.60;99.90;;;;;;6182630;23;20493;-81
2023/09/22 06:49:21;;;;;;;22.75;10.07;;;12.70;99.90;;;;;;6180312;23;20742;-81
2023/09/22 06:51:48;;;;;;;19.58;8.65;;;12.70;99.90;;;;;;6182151;23;20024;-81
2023/09/22 06:54:14;;;;;;;20.38;8.95;;;12.70;99.90;;;;;;6182864;23;20043;-81
2023/09/22 06:56:39;;;;;;;21.33;9.40;;;13.40;99.90;;;;;;6181680;23;20466;-81
2023/09/22 06:59:07;;;;;;;24.48;10.00;;;12.80;99.90;;;;;;6183154;23;20096;-81
2023/09/22 07:01:33;;;;;;;21.73;8.82;;;12.80;99.90;;;;;;6182787;23;20401;-81
2023/09/22 07:03:58;;;;;;;18.73;8.43;;;12.80;99.90;;;;;;6181992;23;20017;-81
2023/09/22 07:06:24;;;;;;;20.38;9.82;;;12.90;99.90;;;;;;6180664;23;20064;-81
2023/09/22 07:08:50;;;;;;;21.20;9.00;;;12.90;99.90;;;;;;6183224;23;20017;-81
2023/09/22 07:11:17;;;;;;;19.58;8.70;;;12.90;99.90;;;;;;6181939;23;20017;-80
2023/09/22 07:13:43;;;;;;;23.30;9.15;;;13.00;99.90;;;;;;6183002;23;20051;-81
2023/09/22 07:16:09;;;;;;;21.17;8.43;;;13.50;99.90;;;;;;6183073;23;20465;-81
2023/09/22 07:18:35;;;;;;;21.25;9.25;;;13.30;99.90;;;;;;6182068;23;20027;-80
2023/09/22 07:21:01;;;;;;;21.48;8.77;;;13.10;99.90;;;;;;6183557;23;20017;-81
2023/09/22 07:23:30;;;;;;;19.42;8.70;;;13.40;99.90;;;;;;6182724;23;20015;-80
2023/09/22 07:26:11;;;;;;;19.30;9.30;;;13.40;99.90;;;;;;6181953;23;20017;-81
2023/09/22 07:28:37;;;;;;;18.83;8.50;;;13.10;99.90;;;;;;6183009;23;20024;-80
2023/09/22 07:31:13;;;;;;;21.38;9.38;;;13.20;99.90;;;;;;6182979;23;20009;-81
2023/09/22 07:33:40;;;;;;;19.38;8.40;;;13.20;99.90;;;;;;6182794;23;20017;-80
2023/09/22 07:36:07;;;;;;;20.10;8.60;;;13.40;99.90;;;;;;6183107;23;20378;-80
2023/09/22 07:38:33;;;;;;;16.45;9.13;;;13.30;99.90;;;;;;6182489;23;20711;-80
2023/09/22 07:40:59;;;;;;;18.35;8.30;;;13.40;99.90;;;;;;6182615;23;20024;-80
2023/09/22 07:43:29;;;;;;;16.58;8.45;;;14.30;99.90;;;;;;6158121;23;20017;-80
2023/09/22 07:45:58;;;;;;;19.15;9.05;;;13.30;99.90;;;;;;6181823;23;20311;-81
2023/09/22 07:48:24;;;;;;;17.95;7.85;;;13.40;99.90;;;;;;6182972;23;20029;-81
2023/09/22 07:50:51;;;;;;;17.80;8.13;;;13.40;99.90;;;;;;6182654;23;20013;-80
2023/09/22 07:53:18;;;;;;;19.15;8.40;;;13.40;99.90;;;;;;6181603;23;20083;-80
2023/09/22 07:55:45;;;;;;;16.38;8.25;;;13.40;99.90;;;;;;6182551;23;20315;-80
2023/09/22 07:58:11;;;;;;;15.93;7.22;;;13.90;99.90;;;;;;6183374;23;20017;-81
2023/09/22 08:00:42;;;;;;;14.02;6.80;;;13.30;99.90;;;;;;6181936;23;20327;-80
2023/09/22 08:03:09;;;;;;;14.88;7.28;;;13.40;99.90;;;;;;6183170;23;20096;-80
2023/09/22 08:05:35;;;;;;;14.68;6.75;;;13.60;99.90;;;;;;6182644;23;20496;-80
2023/09/22 08:08:01;;;;;;;13.73;6.38;;;13.40;99.90;;;;;;6181769;23;20453;-81
2023/09/22 08:10:28;;;;;;;12.93;6.55;;;13.30;99.90;;;;;;6182740;23;20024;-80
2023/09/22 08:12:54;;;;;;;14.70;6.38;;;14.30;99.90;;;;;;6182227;23;20074;-80
2023/09/22 08:15:21;;;;;;;14.98;7.38;;;13.90;99.90;;;;;;6182100;23;20104;-80
2023/09/22 08:17:48;;;;;;;11.63;6.00;;;14.20;99.90;;;;;;6182577;23;20020;-81
2023/09/22 08:20:15;;;;;;;12.68;5.32;;;13.40;99.90;;;;;;6182865;23;20017;-80
2023/09/22 08:22:42;;;;;;;12.32;5.75;;;14.00;99.90;;;;;;6181584;23;20009;-79
2023/09/22 08:25:09;;;;;;;13.15;5.72;;;13.50;99.90;;;;;;6182725;23;20063;-79
2023/09/22 08:27:38;;;;;;;10.52;5.10;;;13.60;99.90;;;;;;6181707;23;20104;-79
2023/09/22 08:30:10;;;;;;;14.38;5.50;;;13.70;99.90;;;;;;6182398;23;20013;-80
2023/09/22 08:32:41;;;;;;;13.43;4.95;;;13.80;99.90;;;;;;6182346;23;20044;-79
2023/09/22 08:35:11;;;;;;;13.18;4.68;;;14.40;99.90;;;;;;6181159;23;20017;-80
2023/09/22 08:37:40;;;;;;;10.88;4.10;;;13.90;99.90;;;;;;6182619;23;20099;-79
2023/09/22 08:40:11;;;;;;;11.05;3.88;;;14.20;99.90;;;;;;6181978;23;20017;-80
2023/09/22 08:42:38;;;;;;;11.73;3.92;;;14.00;99.90;;;;;;6182279;23;20021;-80
2023/09/22 08:45:08;;;;;;;9.73;3.90;;;14.10;99.90;;;;;;6184580;23;20404;-80
2023/09/22 08:47:39;;;;;;;9.85;3.47;;;14.20;99.90;;;;;;6182195;23;20450;-80
2023/09/22 08:50:26;;;;;;;9.60;3.40;;;14.30;99.90;;;;;;6182329;23;20421;-80
2023/09/22 08:52:52;;;;;;;10.38;3.53;;;14.20;99.90;;;;;;6185402;23;20017;-79
2023/09/22 08:55:19;;;;;;;9.73;3.40;;;14.30;99.90;;;;;;6187249;23;20013;-79
2023/09/22 08:57:46;;;;;;;10.27;3.47;;;14.20;99.90;;;;;;6187105;23;20023;-79
2023/09/22 09:00:20;;;;;;;10.40;3.30;;;15.10;99.90;;;;;;6189063;23;20044;-80
2023/09/22 09:02:46;;;;;;;;;;;14.20;99.90;;;;;;6188629;23;20110;-79
2023/09/22 09:05:28;;;;;;;8.30;3.17;;;14.30;99.90;;;;;;6189603;23;20408;-79
2023/09/22 09:08:26;;;;;;;8.45;3.25;;;14.50;99.90;;;;;;6187434;23;20027;-80
2023/09/22 09:10:52;;;;;;;7.93;2.92;;;14.60;99.90;;;;;;6178301;23;20020;-80
2023/09/22 09:13:19;;;;;;;8.00;2.80;;;15.70;99.90;;;;;;6187705;23;20059;-80
2023/09/22 09:15:47;;;;;;;8.00;2.45;;;14.90;99.90;;;;;;6187939;23;20051;-80
2023/09/22 09:18:18;;;;;;;10.20;2.80;;;15.30;99.90;;;;;;6187221;23;20055;-79
2023/09/22 09:20:46;;;;;;;8.05;2.85;;;14.40;99.90;;;;;;6186706;23;20016;-80
2023/09/22 09:23:22;;;;;;;7.18;2.60;;;14.30;99.90;;;;;;6187996;23;20338;-80
2023/09/22 09:25:50;;;;;;;11.20;2.85;;;14.30;99.90;;;;;;6187646;23;20442;-79
2023/09/22 09:28:17;;;;;;;7.90;2.80;;;14.20;99.90;;;;;;6187075;23;20013;-79
2023/09/22 09:30:57;;;;;;;8.43;2.58;;;14.40;99.90;;;;;;6187975;23;20016;-79
2023/09/22 09:33:32;;;;;;;9.00;2.60;;;14.60;99.90;;;;;;6188384;23;20016;-80
2023/09/22 09:35:57;;;;;;;8.05;2.70;;;14.60;99.90;;;;;;6188683;23;20048;-82
2023/09/22 09:38:28;;;;;;;8.07;2.60;;;14.70;99.90;;;;;;6188503;23;20020;-81
2023/09/22 09:40:58;;;;;;;7.82;2.60;;;14.30;99.90;;;;;;6188229;23;20394;-80
2023/09/22 09:43:24;;;;;;;9.93;2.75;;;14.60;99.90;;;;;;6216272;23;20088;-80
2023/09/22 09:45:56;;;;;;;9.98;2.65;;;15.30;99.90;;;;;;6214659;23;20063;-80
2023/09/22 09:48:22;;;;;;;7.75;2.58;;;14.70;99.90;;;;;;6215584;23;20024;-82
2023/09/22 09:50:51;;;;;;;8.07;2.67;;;14.40;99.90;;;;;;6188657;23;20334;-79
2023/09/22 09:53:28;;;;;;;8.20;2.63;;;14.80;99.90;;;;;;6187516;23;20028;-80
2023/09/22 09:55:59;;;;;;;7.97;2.40;;;15.00;99.90;;;;;;6215284;23;20384;-81
2023/09/22 09:58:28;;;;;;;10.60;2.78;;;15.40;99.90;;;;;;6215686;23;20092;-80
2023/09/22 10:00:56;;;;;;;6.38;2.20;;;15.90;99.90;;;;;;6213122;23;20016;-81
2023/09/22 10:03:23;;;;;;;7.30;2.28;;;16.00;99.90;;;;;;6189129;23;20044;-81
2023/09/22 10:05:50;;;;;;;6.38;1.98;;;16.30;99.90;;;;;;6186499;23;20012;-80
2023/09/22 10:08:21;;;;;;;6.15;2.00;;;17.10;99.90;;;;;;6186190;23;20021;-82
2023/09/22 10:10:49;;;;;;;7.50;1.95;;;16.50;99.90;;;;;;6187346;23;20345;-81
2023/09/22 10:13:15;;;;;;;5.90;1.85;;;16.50;99.90;;;;;;6186429;23;20020;-81
2023/09/22 10:15:58;;;;;;;6.97;2.00;;;16.50;99.90;;;;;;6202547;23;20016;-82
2023/09/22 10:18:52;;;;;;;10.50;2.70;;;16.40;99.90;;;;;;6197808;23;20385;-81
2023/09/22 10:21:31;;;;;;;9.13;2.50;;;16.40;99.90;;;;;;6187447;23;20070;-80
2023/09/22 10:24:17;;;;;;;6.28;2.00;;;16.50;99.90;;;;;;6186215;23;20100;-81
2023/09/22 10:27:13;;;;;;;7.30;2.10;;;16.40;99.90;;;;;;6188475;23;20460;-82
2023/09/22 10:29:51;;;;;;;6.22;2.10;;;16.10;99.90;;;;;;6184975;23;20116;-81
2023/09/22 10:35:03;;;;;;;6.15;2.05;;;16.30;99.90;;;;;;6186276;23;20017;-82
2023/09/22 10:37:32;;;;;;;6.72;2.30;;;16.10;99.90;;;;;;6188605;23;20044;-82
2023/09/22 10:40:11;;;;;;;6.90;2.10;;;15.90;99.90;;;;;;6188513;23;20307;-80
2023/09/22 10:42:45;;;;;;;5.72;2.05;;;15.80;99.90;;;;;;6187568;23;20821;-80
2023/09/22 10:47:44;;;;;;;4.75;1.88;;;15.60;99.90;;;;;;6184999;23;20025;-83
2023/09/22 10:50:33;;;;;;;7.43;2.05;;;16.30;99.90;;;;;;6157955;23;20103;-83
2023/09/22 10:53:02;;;;;;;7.47;2.10;;;15.80;99.90;;;;;;6158801;23;20017;-83
2023/09/22 10:55:31;;;;;;;5.90;1.70;;;16.20;99.90;;;;;;6157884;23;20017;-81
2023/09/22 10:57:58;;;;;;;4.18;1.60;;;16.70;99.90;;;;;;6158498;23;20017;-82
2023/09/22 11:00:25;;;;;;;6.20;1.65;;;17.10;99.90;;;;;;6158870;23;20021;-82
2023/09/22 11:02:51;;;;;;;6.97;1.83;;;17.50;99.90;;;;;;6157193;23;20508;-83
2023/09/22 11:05:17;;;;;;;4.15;1.50;;;17.70;99.90;;;;;;6158432;23;20099;-82
2023/09/22 11:07:43;;;;;;;3.72;1.63;;;18.30;99.90;;;;;;6158291;23;20017;-82
2023/09/22 11:10:18;;;;;;;5.05;1.60;;;18.00;99.90;;;;;;6155942;23;20024;-83
2023/09/22 11:13:05;;;;;;;5.15;1.75;;;17.70;99.90;;;;;;6158436;23;20013;-83
2023/09/22 11:15:35;;;;;;;5.55;1.80;;;17.80;99.90;;;;;;6156498;23;20342;-83
2023/09/22 11:18:20;;;;;;;5.88;1.88;;;18.00;99.90;;;;;;6157147;23;20442;-82
2023/09/22 11:20:46;;;;;;;5.93;1.70;;;18.80;99.90;;;;;;6156808;23;20024;-82
2023/09/22 11:23:12;;;;;;;5.97;1.60;;;18.00;99.90;;;;;;6158683;23;20020;-85
2023/09/22 11:25:37;;;;;;;5.80;1.63;;;17.90;99.90;;;;;;6157170;23;20109;-82
2023/09/22 11:28:18;;;;;;;7.00;1.77;;;17.80;99.90;;;;;;6158654;23;20037;-83
2023/09/22 11:31:08;;;;;;;5.82;1.70;;;17.80;99.90;;;;;;6157090;23;20453;-83
2023/09/22 11:34:02;;;;;;;5.88;1.70;;;17.70;99.90;;;;;;6120061;23;20016;-82
2023/09/22 11:36:27;;;;;;;10.52;1.80;;;17.60;99.90;;;;;;6158234;23;20044;-83
2023/09/22 11:39:39;;;;;;;3.63;1.52;;;17.40;99.90;;;;;;6175064;23;20405;-82
2023/09/22 11:42:08;;;;;;;5.43;1.60;;;16.50;99.90;;;;;;6188047;23;20323;-82
2023/09/22 11:44:57;;;;;;;4.32;1.50;;;17.40;99.90;;;;;;6187242;23;20047;-83
2023/09/22 11:47:39;;;;;;;4.68;1.52;;;16.90;99.90;;;;;;6187580;23;20348;-82
2023/09/22 11:50:07;;;;;;;4.15;1.40;;;16.90;99.90;;;;;;6188346;23;20070;-83
2023/09/22 11:52:33;;;;;;;5.55;1.70;;;16.80;99.90;;;;;;6186656;23;20012;-80
2023/09/22 11:55:05;;;;;;;6.00;1.90;;;17.50;99.90;;;;;;6186728;23;20465;-83
2023/09/22 11:57:33;;;;;;;5.57;1.50;;;17.30;99.90;;;;;;6187083;23;20389;-83
2023/09/22 11:59:59;;;;;;;4.55;1.60;;;17.30;99.90;;;;;;6187271;23;20016;-83
2023/09/22 12:02:28;;;;;;;5.05;1.60;;;17.40;99.90;;;;;;6187925;23;20023;-83
2023/09/22 12:04:59;;;;;;;4.70;1.58;;;17.40;99.90;;;;;;6188051;23;20020;-83
2023/09/22 12:07:28;;;;;;;4.95;1.58;;;17.40;99.90;;;;;;6186557;23;20025;-83
2023/09/22 12:09:54;;;;;;;5.72;1.70;;;17.10;99.90;;;;;;6187685;23;20017;-83
2023/09/22 12:12:19;;;;;;;4.35;1.50;;;17.90;99.90;;;;;;6188409;23;20020;-83
2023/09/22 12:15:06;;;;;;;8.07;1.50;;;18.40;99.90;;;;;;6186318;23;20016;-84
2023/09/22 12:17:34;;;;;;;7.25;1.77;;;18.00;99.90;;;;;;6189098;23;20027;-84
2023/09/22 12:20:16;;;;;;;5.07;1.50;;;18.20;99.90;;;;;;6188465;23;20024;-84
2023/09/22 12:22:42;;;;;;;5.68;1.50;;;18.00;99.90;;;;;;6189276;23;20024;-84
2023/09/22 12:25:23;;;;;;;5.68;1.60;;;18.40;99.90;;;;;;6189996;23;20009;-84
2023/09/22 12:27:49;;;;;;;4.82;1.50;;;18.00;99.90;;;;;;6187980;23;20016;-85
2023/09/22 12:30:15;;;;;;;5.45;1.60;;;18.40;99.90;;;;;;6187008;23;20032;-83
2023/09/22 12:33:05;;;;;;;5.35;2.10;;;18.70;99.90;;;;;;6189322;23;20055;-83
2023/09/22 12:35:31;;;;;;;8.65;1.77;;;18.70;99.90;;;;;;6188406;23;20019;-83
2023/09/22 12:37:57;;;;;;;5.68;1.50;;;18.80;99.90;;;;;;6189987;23;20088;-83
2023/09/22 12:40:36;;;;;;;6.13;1.80;;;18.90;99.90;;;;;;6190108;23;20070;-83
2023/09/22 12:43:02;;;;;;;5.30;1.60;;;18.00;99.90;;;;;;6188644;23;20009;-84
2023/09/22 12:45:39;;;;;;;5.95;1.60;;;17.70;99.90;;;;;;6189482;23;20095;-84
2023/09/22 12:48:19;;;;;;;4.85;1.40;;;17.50;99.90;;;;;;6188489;23;20103;-84